Time;durP1;ratioP1;P1;durP2;ratioP2;P2;SDS_P1;SDS_P2;PMS_P1;PMS_P2;Temp;Humidity;BMP_temperature;BMP_pressure;BME280_temperature;BME280_humidity;BME280_pressure;Samples;Min_cycle;Max_cycle;Signal;HPM_P1;HPM_P2
2021/11/12 00:13:41;;;;;;;27.53;17.30;;;1.70;99.90;;;;;;5052239;28;20562;-66
2021/11/12 00:16:07;;;;;;;21.87;16.73;;;1.60;99.90;;;;;;5051803;28;20167;-67
2021/11/12 00:18:35;;;;;;;23.37;17.13;;;1.60;99.90;;;;;;5053298;28;20185;-66
2021/11/12 00:21:03;;;;;;;23.67;16.97;;;1.60;99.90;;;;;;5072509;28;20193;-66
2021/11/12 00:23:33;;;;;;;21.40;16.83;;;1.50;99.90;;;;;;5058221;28;20186;-66
2021/11/12 00:26:01;;;;;;;26.20;17.50;;;1.50;99.90;;;;;;5052767;28;20170;-65
2021/11/12 00:28:31;;;;;;;19.37;17.17;;;1.40;99.90;;;;;;5065443;28;20178;-66
2021/11/12 00:32:05;;;;;;;24.20;17.73;;;1.40;99.90;;;;;;5072397;28;20190;-66
2021/11/12 00:36:48;;;;;;;26.67;17.97;;;1.40;99.90;;;;;;5072683;28;20177;-66
2021/11/12 00:39:58;;;;;;;21.93;17.07;;;1.40;99.90;;;;;;5052620;28;20194;-63
2021/11/12 00:44:35;;;;;;;22.00;17.07;;;1.40;99.90;;;;;;5064673;28;20652;-67
2021/11/12 00:47:03;;;;;;;21.03;17.90;;;1.40;99.90;;;;;;5052698;28;20187;-67
2021/11/12 00:49:33;;;;;;;25.70;17.07;;;1.40;99.90;;;;;;5051827;28;20210;-66
2021/11/12 00:52:06;;;;;;;21.13;16.17;;;1.40;99.90;;;;;;5070451;28;20542;-66
2021/11/12 00:54:31;;;;;;;24.00;16.63;;;1.40;99.90;;;;;;5072348;28;20181;-66
2021/11/12 00:56:57;;;;;;;21.13;16.93;;;1.40;99.90;;;;;;5054520;28;20183;-65
2021/11/12 00:59:24;;;;;;;18.83;15.13;;;1.30;99.90;;;;;;5010916;28;1174742;-66
2021/11/12 01:01:50;;;;;;;25.33;16.40;;;1.30;99.90;;;;;;5054377;28;20171;-67
2021/11/12 01:04:22;;;;;;;22.60;16.00;;;1.20;99.90;;;;;;5052985;28;20174;-66
2021/11/12 01:06:49;;;;;;;19.23;15.97;;;1.10;99.90;;;;;;5067702;28;20261;-67
2021/11/12 01:09:18;;;;;;;21.87;15.50;;;1.10;99.90;;;;;;5072597;28;20166;-65
2021/11/12 01:11:46;;;;;;;19.73;16.13;;;1.00;99.90;;;;;;5059221;28;20174;-66
2021/11/12 01:14:15;;;;;;;26.17;16.97;;;1.00;99.90;;;;;;5052134;28;20652;-66
2021/11/12 01:16:40;;;;;;;18.47;15.20;;;1.00;99.90;;;;;;5057169;28;20185;-65
2021/11/12 01:19:08;;;;;;;16.50;14.77;;;1.00;99.90;;;;;;5052450;28;20203;-66
2021/11/12 01:21:33;;;;;;;20.87;16.17;;;1.00;99.90;;;;;;5067745;28;20197;-67
2021/11/12 01:23:59;;;;;;;21.13;16.03;;;1.00;99.90;;;;;;5066601;28;20171;-67
2021/11/12 01:26:28;;;;;;;20.97;15.73;;;1.10;99.90;;;;;;5052695;28;20178;-66
2021/11/12 01:28:55;;;;;;;20.00;16.03;;;1.10;99.90;;;;;;5056965;28;20170;-66
2021/11/12 01:31:27;;;;;;;20.27;17.17;;;1.20;99.90;;;;;;5072146;28;20251;-67
2021/11/12 01:33:54;;;;;;;18.87;14.70;;;1.20;99.90;;;;;;5071152;28;20572;-67
2021/11/12 01:36:29;;;;;;;22.23;15.53;;;1.30;99.90;;;;;;5072418;28;20284;-66
2021/11/12 01:38:59;;;;;;;19.13;15.37;;;1.30;99.90;;;;;;5066413;28;20294;-66
2021/11/12 01:41:26;;;;;;;18.50;15.57;;;1.30;99.90;;;;;;5052103;28;20193;-66
2021/11/12 01:43:54;;;;;;;17.83;15.37;;;1.30;99.90;;;;;;5056717;28;20635;-66
2021/11/12 01:46:27;;;;;;;17.30;15.47;;;1.30;99.90;;;;;;5072214;28;20170;-66
2021/11/12 01:51:30;;;;;;;18.20;15.60;;;1.30;99.90;;;;;;5051633;28;20269;-66
2021/11/12 01:59:16;;;;;;;20.53;14.40;;;1.20;99.90;;;;;;5058625;28;20202;-66
2021/11/12 02:01:49;;;;;;;16.30;14.57;;;1.20;99.90;;;;;;5052276;28;20179;-65
2021/11/12 02:04:17;;;;;;;19.40;15.77;;;1.20;99.90;;;;;;5064627;28;20533;-66
2021/11/12 02:06:43;;;;;;;17.23;14.37;;;1.20;99.90;;;;;;5071994;28;20174;-67
2021/11/12 02:11:46;;;;;;;15.87;14.23;;;1.20;99.90;;;;;;5051967;28;20175;-65
2021/11/12 02:14:13;;;;;;;16.33;14.47;;;1.10;99.90;;;;;;5061975;28;20178;-66
2021/11/12 02:16:45;;;;;;;15.30;13.90;;;1.10;99.90;;;;;;5072201;28;20197;-66
2021/11/12 02:19:12;;;;;;;16.00;14.40;;;1.10;99.90;;;;;;5053645;28;20206;-67
2021/11/12 02:21:52;;;;;;;14.73;13.37;;;1.10;99.90;;;;;;5053363;28;20539;-65
2021/11/12 02:24:18;;;;;;;17.10;15.20;;;1.00;99.90;;;;;;5052465;28;20182;-65
2021/11/12 02:26:53;;;;;;;16.67;14.73;;;1.00;99.90;;;;;;5053601;28;20167;-66
2021/11/12 02:29:19;;;;;;;14.83;13.20;;;1.10;99.90;;;;;;5071140;28;20169;-64
2021/11/12 02:31:44;;;;;;;16.43;14.00;;;1.10;99.90;;;;;;5069664;28;20655;-66
2021/11/12 02:34:12;;;;;;;16.73;14.37;;;1.20;99.90;;;;;;5051472;28;20175;-66
2021/11/12 02:36:40;;;;;;;16.77;12.63;;;1.20;99.90;;;;;;5054892;28;20174;-65
2021/11/12 02:39:10;;;;;;;17.97;15.00;;;1.30;99.90;;;;;;5031294;28;20223;-66
2021/11/12 02:41:37;;;;;;;15.00;13.63;;;1.30;99.90;;;;;;5037145;28;20186;-67
2021/11/12 02:44:04;;;;;;;17.47;15.70;;;1.40;99.90;;;;;;5062761;28;20218;-66
2021/11/12 02:46:30;;;;;;;17.27;15.50;;;1.40;99.90;;;;;;5052366;28;20166;-67
2021/11/12 02:48:56;;;;;;;21.53;15.33;;;1.50;99.90;;;;;;5071449;28;20219;-66
2021/11/12 02:51:29;;;;;;;14.97;13.40;;;1.50;99.90;;;;;;5070915;28;20271;-66
2021/11/12 02:53:57;;;;;;;14.90;13.50;;;1.60;99.90;;;;;;5071507;28;20584;-65
2021/11/12 02:56:26;;;;;;;18.10;14.87;;;1.60;99.90;;;;;;5071319;28;20651;-65
2021/11/12 02:58:55;;;;;;;15.93;14.40;;;1.60;99.90;;;;;;5051377;28;20171;-66
2021/11/12 03:01:22;;;;;;;16.07;14.43;;;1.70;99.90;;;;;;5051175;28;20203;-65
2021/11/12 03:03:48;;;;;;;22.30;14.30;;;1.80;99.90;;;;;;5073702;28;20173;-65
2021/11/12 03:06:13;;;;;;;23.10;15.70;;;1.90;99.90;;;;;;5060563;28;20228;-66
2021/11/12 03:08:39;;;;;;;25.57;14.77;;;1.90;99.90;;;;;;5055302;28;20167;-65
2021/11/12 03:11:06;;;;;;;18.00;13.47;;;2.00;99.90;;;;;;5067485;28;20360;-67
2021/11/12 03:13:31;;;;;;;21.00;14.13;;;2.10;99.90;;;;;;5056011;28;20174;-66
2021/11/12 03:15:59;;;;;;;24.67;13.83;;;2.20;99.90;;;;;;5064045;28;20535;-66
2021/11/12 03:18:25;;;;;;;23.37;14.47;;;2.20;99.90;;;;;;5055275;28;20581;-66
2021/11/12 03:20:52;;;;;;;24.50;15.60;;;2.30;99.90;;;;;;5063897;28;20209;-66
2021/11/12 03:23:22;;;;;;;22.93;14.37;;;2.40;99.90;;;;;;5074986;28;20249;-66
2021/11/12 03:26:01;;;;;;;19.80;13.60;;;2.50;99.90;;;;;;5066497;28;20625;-66
2021/11/12 03:28:55;;;;;;;16.40;12.57;;;2.60;99.90;;;;;;5054938;28;20303;-66
2021/11/12 04:01:46;;;;;;;18.10;12.77;;;3.30;99.90;;;;;;5054873;28;20202;-65
2021/11/12 04:20:30;;;;;;;17.70;13.63;;;3.50;99.90;;;;;;5055845;28;20206;-64
2021/11/12 04:39:56;;;;;;;15.30;12.90;;;3.50;99.90;;;;;;5053516;28;20320;-64
2021/11/12 05:50:13;;;;;;;33.13;19.47;;;4.30;99.90;;;;;;5068112;28;20198;-64
2021/11/12 05:55:22;;;;;;;29.03;19.40;;;4.20;99.90;;;;;;5069150;28;20181;-63
2021/11/12 05:57:48;;;;;;;27.93;19.03;;;4.20;99.90;;;;;;5072216;28;20178;-64
2021/11/12 06:00:17;;;;;;;28.87;17.30;;;4.20;99.90;;;;;;5037457;28;20207;-64
2021/11/12 06:02:43;;;;;;;27.67;16.67;;;4.20;99.90;;;;;;5052071;28;20221;-64
2021/11/12 06:05:09;;;;;;;32.13;18.03;;;4.20;99.90;;;;;;5066366;28;20542;-64
2021/11/12 06:07:35;;;;;;;29.97;16.27;;;4.20;99.90;;;;;;5071913;28;20197;-63
2021/11/12 06:10:01;;;;;;;32.60;17.97;;;4.20;99.90;;;;;;5062012;28;20210;-63
2021/11/12 06:12:26;;;;;;;22.50;16.73;;;4.20;99.90;;;;;;5052037;28;20181;-64
2021/11/12 06:14:52;;;;;;;28.47;17.03;;;4.20;99.90;;;;;;5062913;28;20266;-64
2021/11/12 06:17:18;;;;;;;26.33;15.80;;;4.20;99.90;;;;;;5071679;28;20174;-64
2021/11/12 06:19:44;;;;;;;28.83;16.10;;;4.20;99.90;;;;;;5060531;28;20268;-65
2021/11/12 06:22:10;;;;;;;26.13;16.07;;;4.20;99.90;;;;;;5058111;28;20173;-64
2021/11/12 06:24:36;;;;;;;25.63;16.73;;;4.20;99.90;;;;;;5071618;28;20166;-64
2021/11/12 06:27:02;;;;;;;30.13;18.00;;;4.20;99.90;;;;;;5066689;28;20178;-63
2021/11/12 06:29:27;;;;;;;25.33;17.00;;;4.20;99.90;;;;;;5051220;28;20171;-64
2021/11/12 06:31:54;;;;;;;24.33;17.23;;;4.20;99.90;;;;;;5054492;28;20178;-64
2021/11/12 06:34:20;;;;;;;24.97;19.13;;;4.20;99.90;;;;;;5071522;28;20709;-64
2021/11/12 06:36:46;;;;;;;30.97;17.83;;;4.20;99.90;;;;;;5068882;28;20212;-64
2021/11/12 06:39:12;;;;;;;28.27;18.57;;;4.30;99.90;;;;;;5050815;28;20198;-65
2021/11/12 06:49:34;;;;;;;25.77;15.63;;;4.20;99.90;;;;;;5064028;28;20193;-64
2021/11/12 06:51:59;;;;;;;25.33;17.00;;;4.20;99.90;;;;;;5052773;28;20171;-64
2021/11/12 06:54:26;;;;;;;25.97;16.57;;;4.20;99.90;;;;;;5071494;28;20174;-65
2021/11/12 06:56:51;;;;;;;26.07;16.27;;;4.20;99.90;;;;;;5063892;28;20185;-65
2021/11/12 06:59:17;;;;;;;30.63;18.60;;;4.20;99.90;;;;;;5036204;28;20195;-65
2021/11/12 07:01:43;;;;;;;26.53;15.83;;;4.20;99.90;;;;;;5043795;28;20256;-64
2021/11/12 07:04:09;;;;;;;34.13;17.20;;;4.20;99.90;;;;;;5051113;28;20216;-65
2021/11/12 07:06:36;;;;;;;25.60;16.53;;;4.20;99.90;;;;;;5051192;28;20587;-65
2021/11/12 07:09:05;;;;;;;29.60;17.27;;;4.30;99.90;;;;;;5051117;28;20182;-66
2021/11/12 07:11:31;;;;;;;25.87;16.40;;;4.20;99.90;;;;;;5063813;28;20671;-65
2021/11/12 07:13:56;;;;;;;23.53;16.00;;;4.20;99.90;;;;;;5057647;28;20229;-65
2021/11/12 07:16:22;;;;;;;27.80;16.63;;;4.20;99.90;;;;;;5031444;28;20716;-65
2021/11/12 07:18:48;;;;;;;18.97;13.90;;;4.10;99.90;;;;;;5036371;28;20163;-65
2021/11/12 07:21:14;;;;;;;25.50;17.30;;;4.10;99.90;;;;;;5050413;28;20193;-66
2021/11/12 07:23:40;;;;;;;25.77;15.93;;;4.10;99.90;;;;;;5050781;28;20254;-65
2021/11/12 07:26:05;;;;;;;20.40;14.10;;;4.10;99.90;;;;;;5050653;28;20616;-66
2021/11/12 07:28:31;;;;;;;30.47;17.10;;;4.20;99.90;;;;;;5038425;28;20469;-65
2021/11/12 07:30:57;;;;;;;22.53;16.83;;;4.10;99.90;;;;;;5070602;28;20194;-66
2021/11/12 07:33:24;;;;;;;22.17;16.47;;;4.20;99.90;;;;;;5066372;28;20655;-65
2021/11/12 07:38:25;;;;;;;29.60;17.60;;;4.30;99.90;;;;;;5052904;28;20179;-64
2021/11/12 07:48:32;;;;;;;28.97;19.30;;;4.30;99.90;;;;;;5052854;28;20174;-65
2021/11/12 07:50:58;;;;;;;26.87;18.73;;;4.30;99.90;;;;;;5053946;28;20219;-66
2021/11/12 07:53:25;;;;;;;22.50;17.80;;;4.30;99.90;;;;;;5054197;28;20175;-65
2021/11/12 07:55:53;;;;;;;29.80;19.50;;;4.40;99.90;;;;;;5054765;28;20250;-66
2021/11/12 07:58:19;;;;;;;21.73;18.80;;;4.40;99.90;;;;;;5054188;28;20224;-64
2021/11/12 08:00:45;;;;;;;22.50;17.13;;;4.40;99.90;;;;;;5053545;28;20203;-65
2021/11/12 08:03:11;;;;;;;20.10;18.03;;;4.30;99.90;;;;;;5053993;28;20593;-65
2021/11/12 08:05:39;;;;;;;22.20;17.67;;;4.30;99.90;;;;;;5053886;28;20216;-66
2021/11/12 08:08:08;;;;;;;22.80;17.90;;;4.30;99.90;;;;;;5071903;28;20174;-66
2021/11/12 08:10:40;;;;;;;19.03;16.87;;;4.30;99.90;;;;;;5073433;28;20190;-65
2021/11/12 08:13:13;;;;;;;22.00;19.70;;;4.30;99.90;;;;;;5054407;28;20174;-64
2021/11/12 08:15:55;;;;;;;26.27;20.07;;;4.40;99.90;;;;;;5056144;28;20178;-64
2021/11/12 08:23:28;;;;;;;27.13;19.73;;;4.40;99.90;;;;;;5073656;28;20196;-65
2021/11/12 08:26:08;;;;;;;22.90;18.47;;;4.40;99.90;;;;;;5054281;28;20173;-65
2021/11/12 08:28:54;;;;;;;25.20;19.40;;;4.40;99.90;;;;;;5053147;28;20167;-65
2021/11/12 08:33:57;;;;;;;25.77;19.67;;;4.40;99.90;;;;;;5035373;28;20172;-65
2021/11/12 08:44:05;;;;;;;31.80;22.73;;;4.50;99.90;;;;;;5053991;28;20368;-66
2021/11/12 08:46:41;;;;;;;34.43;21.33;;;4.60;99.90;;;;;;5073400;28;20159;-65
2021/11/12 08:49:13;;;;;;;28.37;21.13;;;4.60;99.90;;;;;;5071701;28;20161;-66
2021/11/12 08:51:41;;;;;;;30.10;20.70;;;4.70;99.90;;;;;;5057664;28;20170;-66
2021/11/12 08:54:08;;;;;;;22.93;20.50;;;4.70;99.90;;;;;;5072306;28;20169;-66
2021/11/12 08:56:38;;;;;;;31.17;21.17;;;4.70;99.90;;;;;;5053450;28;20239;-67
2021/11/12 08:59:04;;;;;;;28.40;22.50;;;4.70;99.90;;;;;;5068929;28;20177;-67
2021/11/12 09:01:30;;;;;;;28.27;20.63;;;4.70;99.90;;;;;;5072516;28;20206;-67
2021/11/12 09:03:56;;;;;;;28.07;20.00;;;4.70;99.90;;;;;;5056753;28;20268;-66
2021/11/12 09:06:26;;;;;;;25.77;19.23;;;4.70;99.90;;;;;;5053082;28;20166;-65
2021/11/12 09:08:52;;;;;;;26.80;18.30;;;4.70;99.90;;;;;;5066848;28;20629;-65
2021/11/12 09:11:18;;;;;;;30.83;21.07;;;4.70;99.90;;;;;;5054581;28;20227;-66
2021/11/12 09:16:14;;;;;;;25.97;19.90;;;4.80;99.90;;;;;;5072948;28;20171;-65
2021/11/12 09:18:42;;;;;;;30.77;20.77;;;4.90;99.90;;;;;;5070947;28;20174;-66
2021/11/12 09:21:09;;;;;;;28.30;20.13;;;5.00;99.90;;;;;;5067927;28;20209;-65
2021/11/12 09:23:35;;;;;;;34.13;20.37;;;5.10;99.90;;;;;;5052544;28;20209;-65
2021/11/12 09:26:02;;;;;;;26.17;19.30;;;5.20;99.90;;;;;;5055453;28;20656;-64
2021/11/12 09:28:28;;;;;;;27.20;20.97;;;5.20;99.90;;;;;;5052319;28;20175;-65
2021/11/12 09:30:54;;;;;;;29.97;19.77;;;5.20;99.90;;;;;;5056417;28;20248;-65
2021/11/12 09:33:19;;;;;;;31.83;21.50;;;5.30;99.90;;;;;;5072260;28;20165;-65
2021/11/12 09:35:45;;;;;;;33.53;21.20;;;5.20;99.90;;;;;;5069224;28;20181;-66
2021/11/12 09:38:11;;;;;;;30.70;20.47;;;5.30;99.90;;;;;;5052577;28;20179;-64
2021/11/12 09:40:37;;;;;;;28.60;19.97;;;5.30;99.90;;;;;;5052560;28;20264;-65
2021/11/12 09:43:02;;;;;;;31.30;19.97;;;5.40;99.90;;;;;;5072203;28;20216;-65
2021/11/12 09:45:28;;;;;;;32.50;21.10;;;5.50;99.90;;;;;;5071601;28;20204;-64
2021/11/12 09:47:56;;;;;;;32.30;20.73;;;5.50;99.90;;;;;;5052291;28;20597;-65
2021/11/12 09:50:25;;;;;;;27.80;19.30;;;5.50;99.90;;;;;;5051615;28;20187;-65
2021/11/12 09:52:52;;;;;;;30.80;22.47;;;5.60;99.90;;;;;;5070247;28;20193;-64
2021/11/12 09:55:19;;;;;;;34.03;21.80;;;5.70;99.90;;;;;;5057786;28;20187;-65
2021/11/12 09:57:46;;;;;;;28.50;20.63;;;5.80;99.90;;;;;;5052253;28;20629;-64
2021/11/12 10:00:16;;;;;;;30.13;20.47;;;5.80;99.90;;;;;;5064979;28;20289;-66
2021/11/12 10:02:45;;;;;;;27.27;20.87;;;5.90;99.90;;;;;;5072390;28;20508;-67
2021/11/12 10:05:13;;;;;;;33.37;21.70;;;6.00;99.90;;;;;;5060407;28;20187;-67
2021/11/12 10:07:39;;;;;;;26.77;18.83;;;5.90;99.90;;;;;;5052353;28;20163;-67
2021/11/12 10:10:14;;;;;;;36.50;21.30;;;5.90;99.90;;;;;;5066088;28;20209;-67
2021/11/12 10:12:44;;;;;;;35.00;22.53;;;5.90;99.90;;;;;;5065336;28;20574;-68
2021/11/12 10:15:13;;;;;;;32.23;21.67;;;6.10;99.90;;;;;;5034263;28;20210;-67
2021/11/12 10:17:38;;;;;;;31.30;21.70;;;6.20;99.90;;;;;;5052913;28;20520;-66
2021/11/12 10:20:11;;;;;;;32.10;21.33;;;6.20;99.90;;;;;;5051345;28;20207;-66
2021/11/12 10:22:39;;;;;;;29.30;21.50;;;6.30;99.90;;;;;;5058838;28;20646;-67
2021/11/12 10:25:07;;;;;;;31.63;20.60;;;6.20;99.90;;;;;;5072046;28;20192;-67
2021/11/12 10:27:34;;;;;;;31.90;21.90;;;6.30;99.90;;;;;;5047817;28;20182;-67
2021/11/12 10:30:12;;;;;;;31.20;21.40;;;6.30;99.90;;;;;;5051335;28;20218;-67
2021/11/12 10:32:39;;;;;;;32.97;21.03;;;6.30;99.90;;;;;;5057665;28;20174;-67
2021/11/12 10:35:23;;;;;;;25.73;18.33;;;6.30;99.90;;;;;;5053690;28;20576;-66
2021/11/12 10:37:49;;;;;;;26.87;19.00;;;6.20;99.90;;;;;;5064098;28;20228;-67
2021/11/12 10:40:26;;;;;;;23.27;17.87;;;6.50;99.90;;;;;;5050905;28;20741;-67
2021/11/12 10:42:54;;;;;;;20.10;16.97;;;6.70;99.90;;;;;;5058208;28;20261;-67
2021/11/12 10:45:26;;;;;;;22.97;15.90;;;7.20;99.90;;;;;;5071297;28;20545;-67
2021/11/12 10:47:57;;;;;;;19.47;15.43;;;7.40;99.90;;;;;;5064579;28;20299;-67
2021/11/12 10:50:26;;;;;;;14.43;13.03;;;7.80;99.90;;;;;;5053298;28;20198;-67
2021/11/12 10:52:56;;;;;;;13.60;12.40;;;8.20;99.90;;;;;;5071364;28;20174;-67
2021/11/12 10:55:23;;;;;;;13.43;12.23;;;8.70;99.90;;;;;;5068991;28;20565;-67
2021/11/12 10:57:49;;;;;;;13.03;11.73;;;9.20;99.90;;;;;;5050948;28;20171;-66
2021/11/12 11:00:25;;;;;;;12.10;10.90;;;9.60;99.90;;;;;;5050550;28;20255;-67
2021/11/12 11:02:52;;;;;;;12.90;11.07;;;9.90;99.90;;;;;;5071005;28;20181;-67
2021/11/12 11:05:43;;;;;;;11.93;10.83;;;10.30;99.90;;;;;;5070427;28;20158;-67
2021/11/12 11:08:16;;;;;;;13.47;11.93;;;10.30;99.90;;;;;;5051186;28;20178;-67
2021/11/12 11:10:49;;;;;;;12.10;10.83;;;10.50;99.90;;;;;;5066438;28;20198;-67
2021/11/12 11:13:20;;;;;;;11.37;10.37;;;10.80;99.90;;;;;;5069906;28;20198;-67
2021/11/12 11:15:46;;;;;;;11.57;10.37;;;11.10;99.90;;;;;;5054689;28;20174;-67
2021/11/12 11:18:40;;;;;;;11.97;10.17;;;11.00;99.90;;;;;;5050613;28;20656;-67
2021/11/12 11:21:12;;;;;;;11.97;10.77;;;11.10;99.90;;;;;;5024963;28;20318;-66
2021/11/12 11:24:07;;;;;;;11.40;10.20;;;11.20;99.90;;;;;;5033959;28;20522;-67
2021/11/12 11:26:47;;;;;;;11.57;10.37;;;11.50;99.90;;;;;;5061441;28;20195;-67
2021/11/12 11:29:20;;;;;;;11.40;10.50;;;11.70;99.90;;;;;;5063350;28;20232;-65
2021/11/12 11:31:46;;;;;;;11.03;9.87;;;12.00;99.90;;;;;;5039532;28;20170;-67
2021/11/12 11:34:12;;;;;;;11.20;10.07;;;12.30;99.90;;;;;;5065784;28;20162;-67
2021/11/12 11:36:44;;;;;;;11.57;10.43;;;12.40;99.90;;;;;;5054761;28;20175;-68
2021/11/12 11:39:15;;;;;;;11.57;10.40;;;12.40;99.90;;;;;;5054357;28;20202;-68
2021/11/12 11:41:43;;;;;;;12.80;11.63;;;12.30;99.90;;;;;;5054720;28;20174;-67
2021/11/12 11:44:15;;;;;;;11.00;9.90;;;12.40;99.90;;;;;;5054623;28;20199;-67
2021/11/12 11:46:45;;;;;;;10.83;9.73;;;12.60;99.90;;;;;;5054586;28;20224;-67
2021/11/12 11:49:16;;;;;;;11.90;10.73;;;12.80;99.90;;;;;;5054291;28;20167;-67
2021/11/12 11:51:57;;;;;;;10.60;9.60;;;13.00;99.90;;;;;;5054381;28;20262;-67
2021/11/12 11:54:24;;;;;;;12.23;10.93;;;13.00;99.90;;;;;;5054226;28;20175;-67
2021/11/12 11:56:58;;;;;;;11.90;10.80;;;13.00;99.90;;;;;;5054440;28;20171;-68
2021/11/12 11:59:29;;;;;;;11.40;10.30;;;12.80;99.90;;;;;;5059326;28;20209;-67
2021/11/12 12:02:03;;;;;;;11.17;10.13;;;12.70;99.90;;;;;;5072362;28;20579;-67
2021/11/12 12:04:35;;;;;;;11.53;10.37;;;12.60;99.90;;;;;;5062852;28;20181;-67
2021/11/12 12:07:00;;;;;;;13.07;10.60;;;12.60;99.90;;;;;;5070180;28;20675;-67
2021/11/12 12:09:58;;;;;;;11.87;10.67;;;12.60;99.90;;;;;;5058106;28;20206;-68
2021/11/12 12:12:30;;;;;;;12.13;11.03;;;12.60;99.90;;;;;;5069349;28;20186;-67
2021/11/12 12:15:03;;;;;;;11.23;10.03;;;12.60;99.90;;;;;;5067104;28;20659;-66
2021/11/12 12:17:31;;;;;;;12.50;10.57;;;12.50;99.90;;;;;;5070147;28;20701;-67
2021/11/12 12:20:18;;;;;;;11.33;10.10;;;12.60;99.90;;;;;;5053053;28;20252;-67
2021/11/12 13:22:45;;;;;;;11.83;10.63;;;12.20;99.90;;;;;;5052528;28;20499;-68
2021/11/12 13:25:23;;;;;;;11.70;10.60;;;12.20;99.90;;;;;;5066645;28;20330;-67
2021/11/12 13:27:50;;;;;;;12.80;10.07;;;12.30;99.90;;;;;;5050092;28;20170;-66
2021/11/12 13:30:27;;;;;;;11.00;9.80;;;12.30;99.90;;;;;;5071969;28;20273;-67
2021/11/12 13:32:53;;;;;;;11.80;10.60;;;12.40;99.90;;;;;;5065008;28;20202;-68
2021/11/12 13:35:35;;;;;;;12.50;11.00;;;12.50;99.90;;;;;;5038180;28;20209;-67
2021/11/12 13:38:04;;;;;;;11.67;10.70;;;12.40;99.90;;;;;;5050066;28;20186;-68
2021/11/12 13:40:31;;;;;;;11.07;10.03;;;12.40;99.90;;;;;;5057438;28;20241;-68
2021/11/12 13:42:57;;;;;;;12.20;10.90;;;12.50;99.90;;;;;;5053478;28;20171;-67
2021/11/12 13:45:26;;;;;;;10.97;9.87;;;12.50;99.90;;;;;;5051662;28;20182;-67
2021/11/12 13:48:09;;;;;;;11.20;10.00;;;12.50;99.90;;;;;;5061949;28;20579;-67
2021/11/12 13:50:35;;;;;;;14.97;10.90;;;12.30;99.90;;;;;;5071617;28;20255;-67
2021/11/12 13:53:02;;;;;;;10.90;10.00;;;12.10;99.90;;;;;;5070442;28;20619;-67
2021/11/12 13:55:34;;;;;;;11.57;10.47;;;11.90;99.90;;;;;;5056600;28;20179;-68
2021/11/12 13:58:02;;;;;;;12.47;11.27;;;11.70;99.90;;;;;;5071047;28;20186;-68
2021/11/12 14:00:29;;;;;;;11.87;10.73;;;11.70;99.90;;;;;;5056262;28;20579;-67
2021/11/12 14:03:07;;;;;;;12.07;10.87;;;11.60;99.90;;;;;;5051810;28;20163;-67
2021/11/12 14:05:35;;;;;;;10.53;9.53;;;11.50;99.90;;;;;;5067541;28;20178;-67
2021/11/12 14:08:11;;;;;;;11.97;10.77;;;11.30;99.90;;;;;;5058243;28;20282;-67
2021/11/12 14:10:40;;;;;;;12.23;10.93;;;11.00;99.90;;;;;;5055267;28;20209;-67
2021/11/12 14:13:08;;;;;;;12.20;11.00;;;10.90;99.90;;;;;;5064462;28;20169;-67
2021/11/12 14:15:44;;;;;;;12.40;10.83;;;10.80;99.90;;;;;;5065646;28;20182;-67
2021/11/12 14:18:20;;;;;;;11.93;10.03;;;10.70;99.90;;;;;;5056688;28;20181;-67
2021/11/12 14:24:24;;;;;;;12.60;11.20;;;10.60;99.90;;;;;;5051996;28;20167;-67
2021/11/12 14:26:59;;;;;;;10.87;9.93;;;10.50;99.90;;;;;;5055916;28;20174;-68
2021/11/12 14:32:49;;;;;;;14.30;12.53;;;10.10;99.90;;;;;;5063231;28;20636;-67
2021/11/12 14:37:55;;;;;;;12.50;11.30;;;9.90;99.90;;;;;;5057335;28;20186;-68
2021/11/12 14:45:40;;;;;;;12.03;10.93;;;9.50;99.90;;;;;;5069488;28;20178;-68
2021/11/12 14:51:09;;;;;;;14.77;12.50;;;9.30;99.90;;;;;;5051907;28;20217;-67
2021/11/12 14:53:49;;;;;;;13.10;11.63;;;9.20;99.90;;;;;;5031545;28;20270;-67
2021/11/12 14:56:20;;;;;;;13.37;12.00;;;9.10;99.90;;;;;;5045445;28;20523;-67
2021/11/12 14:58:56;;;;;;;12.63;11.30;;;8.90;99.90;;;;;;5050631;28;20297;-66
2021/11/12 15:01:25;;;;;;;12.80;11.50;;;8.80;99.90;;;;;;5059085;28;20263;-66
2021/11/12 15:03:51;;;;;;;12.83;11.53;;;8.80;99.90;;;;;;5035422;28;20178;-67
2021/11/12 15:06:20;;;;;;;12.93;11.63;;;8.70;99.90;;;;;;5059030;28;20535;-67
2021/11/12 15:11:14;;;;;;;13.37;11.93;;;8.50;99.90;;;;;;5063700;28;20199;-67
2021/11/12 15:13:41;;;;;;;13.70;12.00;;;8.40;99.90;;;;;;5049998;28;20632;-68
2021/11/12 15:16:27;;;;;;;12.93;11.87;;;8.40;99.90;;;;;;5055600;28;20185;-66
2021/11/12 15:18:57;;;;;;;13.07;11.77;;;8.30;99.90;;;;;;5070631;28;20571;-64
2021/11/12 15:29:07;;;;;;;15.07;13.00;;;8.00;99.90;;;;;;5030899;28;20203;-63
2021/11/12 15:34:17;;;;;;;14.07;12.77;;;7.80;99.90;;;;;;5050559;28;20224;-66
2021/11/12 15:39:30;;;;;;;13.20;12.00;;;7.70;99.90;;;;;;5070213;28;20174;-67
2021/11/12 15:44:28;;;;;;;17.60;13.33;;;7.60;99.90;;;;;;5050332;28;20163;-67
2021/11/12 15:47:05;;;;;;;15.03;13.60;;;7.50;99.90;;;;;;5050888;28;20167;-67
2021/11/12 15:49:31;;;;;;;14.80;13.30;;;7.50;99.90;;;;;;5050195;28;20216;-67
2021/11/12 15:52:04;;;;;;;13.70;12.30;;;7.40;99.90;;;;;;5051174;28;20593;-67
2021/11/12 15:57:45;;;;;;;17.60;14.60;;;7.30;99.90;;;;;;5010401;28;20183;-68
2021/11/12 16:08:07;;;;;;;15.60;13.73;;;7.10;99.90;;;;;;5050467;28;20508;-67
2021/11/12 16:15:44;;;;;;;15.10;13.40;;;6.90;99.90;;;;;;5053832;28;20204;-68
2021/11/12 16:23:21;;;;;;;15.80;14.10;;;6.80;99.90;;;;;;5056707;28;20181;-67
2021/11/12 16:25:47;;;;;;;16.33;14.57;;;6.70;99.90;;;;;;5053821;28;20174;-67
2021/11/12 16:28:19;;;;;;;15.23;13.73;;;6.70;99.90;;;;;;5071368;28;20174;-66
2021/11/12 16:30:51;;;;;;;17.10;15.40;;;6.60;99.90;;;;;;5057037;28;20210;-68
2021/11/12 16:33:17;;;;;;;15.33;13.87;;;6.60;99.90;;;;;;5053684;28;20171;-67
2021/11/12 16:35:43;;;;;;;14.97;13.37;;;6.60;99.90;;;;;;5068503;28;20201;-67
2021/11/12 16:38:22;;;;;;;14.80;13.43;;;6.50;99.90;;;;;;5073562;28;20257;-67
2021/11/12 16:41:13;;;;;;;15.43;13.93;;;6.40;99.90;;;;;;5057608;28;20206;-68
2021/11/12 16:48:59;;;;;;;15.70;13.47;;;6.30;99.90;;;;;;5073230;28;20651;-66
2021/11/12 16:59:37;;;;;;;17.03;14.23;;;6.20;99.90;;;;;;5058022;28;20197;-69
2021/11/12 17:10:16;;;;;;;14.33;13.00;;;6.00;99.90;;;;;;5072630;28;20247;-68
2021/11/12 17:15:40;;;;;;;16.33;14.73;;;5.90;99.90;;;;;;5053127;28;20673;-67
2021/11/12 17:47:43;;;;;;;17.33;14.03;;;5.40;99.90;;;;;;5072455;28;20174;-67
2021/11/12 17:50:21;;;;;;;14.63;13.13;;;5.30;99.90;;;;;;5071187;28;20220;-65
2021/11/12 18:03:30;;;;;;;15.53;14.10;;;5.20;99.90;;;;;;5071855;28;20668;-67
2021/11/12 18:17:14;;;;;;;16.13;14.53;;;5.10;99.90;;;;;;5057260;28;20193;-68
2021/11/12 21:48:19;;;;;;;13.90;12.57;;;5.40;99.90;;;;;;5052321;28;20177;-67
2021/11/12 21:50:47;;;;;;;14.97;13.47;;;5.50;99.90;;;;;;5058622;28;20206;-67
2021/11/12 21:53:13;;;;;;;12.77;11.67;;;5.50;99.90;;;;;;5069685;28;20171;-67
2021/11/12 21:55:38;;;;;;;16.03;13.33;;;5.60;99.90;;;;;;5052309;28;20231;-67
2021/11/12 21:58:04;;;;;;;14.07;12.70;;;5.60;99.90;;;;;;5053107;28;20640;-68
2021/11/12 22:00:31;;;;;;;14.53;13.07;;;5.50;99.90;;;;;;5085607;22;20679;-64
2021/11/12 22:02:57;;;;;;;13.63;12.33;;;5.60;99.90;;;;;;5032686;28;20183;-65
2021/11/12 22:05:23;;;;;;;13.97;12.57;;;5.60;99.90;;;;;;5051161;28;20206;-64
2021/11/12 22:07:48;;;;;;;15.33;13.53;;;5.60;99.90;;;;;;5032343;28;20272;-65
2021/11/12 22:10:14;;;;;;;13.97;12.47;;;5.60;99.90;;;;;;5049066;28;20211;-67
2021/11/12 22:12:40;;;;;;;14.00;12.70;;;5.60;99.90;;;;;;5051537;28;20199;-65
2021/11/12 22:15:06;;;;;;;14.10;12.90;;;5.60;99.90;;;;;;5032085;28;20215;-66
2021/11/12 22:17:33;;;;;;;14.33;12.83;;;5.70;99.90;;;;;;5031904;28;20262;-65
2021/11/12 22:19:59;;;;;;;14.73;11.93;;;5.70;99.90;;;;;;5049828;28;20202;-65
2021/11/12 22:22:24;;;;;;;14.20;12.87;;;5.70;99.90;;;;;;5041528;28;20536;-65
2021/11/12 22:24:50;;;;;;;15.70;13.50;;;5.70;99.90;;;;;;5032031;28;20171;-65
2021/11/12 22:27:16;;;;;;;14.10;12.80;;;5.60;99.90;;;;;;5039669;28;20169;-64
2021/11/12 22:29:42;;;;;;;14.80;13.20;;;5.60;99.90;;;;;;5051539;28;20166;-66
2021/11/12 22:32:08;;;;;;;14.33;12.80;;;5.50;99.90;;;;;;5044854;28;20312;-63
2021/11/12 22:34:34;;;;;;;15.67;14.07;;;5.40;99.90;;;;;;5031773;28;20187;-64
2021/11/12 22:36:59;;;;;;;15.93;13.87;;;5.30;99.90;;;;;;5036384;28;20571;-64
2021/11/12 22:39:26;;;;;;;14.70;13.30;;;5.30;99.90;;;;;;5051147;28;20163;-64
2021/11/12 22:41:52;;;;;;;15.20;13.63;;;5.30;99.90;;;;;;5048192;28;20551;-64
2021/11/12 22:44:18;;;;;;;14.20;12.73;;;5.30;99.90;;;;;;5031443;28;20174;-64
2021/11/12 22:46:44;;;;;;;15.63;13.93;;;5.20;99.90;;;;;;5032677;28;20174;-64